Time;durP1;ratioP1;P1;durP2;ratioP2;P2;SDS_P1;SDS_P2;PMS_P1;PMS_P2;Temp;Humidity;BMP_temperature;BMP_pressure;BME280_temperature;BME280_humidity;BME280_pressure;Samples;Min_cycle;Max_cycle;Signal;HPM_P1;HPM_P2
2022/05/02 12:02:56;;;;;;;2.63;1.00;;;24.60;44.20;;;;;;5000249;28;1269123;-64
2022/05/02 12:05:33;;;;;;;2.10;1.00;;;24.60;44.30;;;;;;5054655;28;20064;-62
2022/05/02 12:08:02;;;;;;;1.40;1.00;;;24.60;44.30;;;;;;5056817;28;20033;-64
2022/05/02 12:10:38;;;;;;;1.57;1.10;;;24.60;44.30;;;;;;5061311;28;20020;-64
2022/05/02 12:13:06;;;;;;;1.77;1.13;;;24.60;44.30;;;;;;5052726;28;20337;-63
2022/05/02 12:15:32;;;;;;;1.75;1.00;;;24.60;44.30;;;;;;5063984;28;20047;-64
2022/05/02 12:18:07;;;;;;;2.05;1.15;;;24.70;44.40;;;;;;5056507;28;20028;-61
2022/05/02 12:20:40;;;;;;;1.38;1.00;;;24.70;44.40;;;;;;5069223;28;20048;-66
2022/05/02 12:23:16;;;;;;;1.60;1.17;;;24.70;44.50;;;;;;5066370;28;20048;-65
2022/05/02 12:25:56;;;;;;;1.60;1.10;;;24.70;44.40;;;;;;5069651;28;20056;-65
2022/05/02 12:28:43;;;;;;;1.70;1.10;;;24.70;44.30;;;;;;5070229;28;20338;-64
2022/05/02 12:31:14;;;;;;;1.48;0.90;;;24.70;44.30;;;;;;5035817;28;20041;-65
2022/05/02 12:33:43;;;;;;;1.65;1.13;;;24.70;44.30;;;;;;4998972;28;20129;-64
2022/05/02 12:36:20;;;;;;;1.20;1.00;;;24.70;44.30;;;;;;4998583;28;20104;-64
2022/05/02 12:39:09;;;;;;;2.13;1.15;;;24.80;44.30;;;;;;5002636;28;20026;-64
2022/05/02 12:42:01;;;;;;;2.17;1.17;;;24.80;44.30;;;;;;4995945;28;20037;-66
2022/05/02 12:44:42;;;;;;;2.58;1.30;;;24.80;44.40;;;;;;4984169;28;20508;-66
2022/05/02 12:47:15;;;;;;;1.38;1.00;;;24.80;44.40;;;;;;4993193;28;20057;-62
2022/05/02 12:49:54;;;;;;;1.73;1.00;;;24.80;44.40;;;;;;5007133;28;20113;-65
2022/05/02 12:52:20;;;;;;;2.08;1.10;;;24.80;44.30;;;;;;5001741;28;20022;-66
2022/05/02 12:54:49;;;;;;;1.65;1.10;;;24.80;44.30;;;;;;4997226;28;20062;-66
2022/05/02 13:02:50;;;;;;;1.23;1.00;;;24.80;44.20;;;;;;4993665;28;20092;-64
2022/05/02 13:05:18;;;;;;;1.52;1.00;;;24.90;44.20;;;;;;5001315;28;20022;-64
2022/05/02 13:07:47;;;;;;;1.10;0.90;;;24.90;44.20;;;;;;4998280;28;20032;-65
2022/05/02 13:10:19;;;;;;;1.45;1.00;;;24.90;44.30;;;;;;5000688;28;20026;-66
2022/05/02 13:12:58;;;;;;;1.63;1.10;;;24.90;44.20;;;;;;4993368;28;20036;-65
2022/05/02 13:15:26;;;;;;;1.17;1.00;;;24.90;44.30;;;;;;5002468;28;20034;-64
2022/05/02 13:18:01;;;;;;;1.88;1.00;;;24.90;44.20;;;;;;5000314;28;20100;-61
2022/05/02 13:20:29;;;;;;;1.80;1.10;;;24.90;44.20;;;;;;5001064;28;20028;-65
2022/05/02 13:23:08;;;;;;;1.95;1.20;;;24.90;44.10;;;;;;5000013;28;20044;-63
2022/05/02 13:25:55;;;;;;;1.30;1.00;;;24.90;44.10;;;;;;4994820;28;20026;-65
2022/05/02 13:28:35;;;;;;;1.85;1.05;;;24.90;44.00;;;;;;5001218;28;20564;-60
2022/05/02 13:31:15;;;;;;;1.27;1.08;;;24.90;44.20;;;;;;5007408;28;20122;-61
2022/05/02 13:33:49;;;;;;;1.92;1.02;;;24.90;44.00;;;;;;5033493;28;20044;-63
2022/05/02 13:36:14;;;;;;;1.13;1.00;;;25.00;44.00;;;;;;5027754;28;20080;-64
2022/05/02 13:39:01;;;;;;;1.45;1.00;;;25.00;44.50;;;;;;5038264;28;20077;-65
2022/05/02 13:41:33;;;;;;;1.13;0.95;;;25.00;44.10;;;;;;5029793;28;20021;-63
2022/05/02 13:44:09;;;;;;;1.10;0.90;;;25.00;44.10;;;;;;5026020;28;20496;-64
2022/05/02 13:46:57;;;;;;;1.33;1.00;;;25.00;44.10;;;;;;5034073;28;20025;-64
2022/05/02 13:49:42;;;;;;;1.15;0.90;;;25.00;44.00;;;;;;5039374;28;20073;-65
2022/05/02 13:52:13;;;;;;;0.98;0.90;;;25.00;44.20;;;;;;5023475;28;20051;-64
2022/05/02 13:54:49;;;;;;;1.23;0.95;;;25.00;44.10;;;;;;5025410;28;20035;-65
2022/05/02 13:57:42;;;;;;;1.20;0.93;;;25.00;44.10;;;;;;5028321;28;20221;-65
2022/05/02 14:03:38;;;;;;;2.28;1.20;;;25.00;44.60;;;;;;5024625;28;20705;-65
2022/05/02 14:06:08;;;;;;;0.98;0.88;;;25.00;44.00;;;;;;5024492;28;20639;-65
2022/05/02 14:08:34;;;;;;;1.23;0.93;;;25.00;44.10;;;;;;5027096;28;20475;-64
2022/05/02 14:11:00;;;;;;;1.20;0.95;;;24.90;44.00;;;;;;5025788;28;20017;-65
2022/05/02 14:13:28;;;;;;;1.95;1.00;;;24.90;44.00;;;;;;5031790;28;20113;-64
2022/05/02 14:16:03;;;;;;;1.50;1.00;;;24.90;44.10;;;;;;5023266;28;20043;-64
2022/05/02 14:18:33;;;;;;;1.83;1.00;;;24.90;44.10;;;;;;5027895;28;20028;-65
2022/05/02 14:21:00;;;;;;;2.17;1.10;;;24.90;44.10;;;;;;5030296;28;20029;-65
2022/05/02 14:23:26;;;;;;;1.00;0.90;;;24.90;44.10;;;;;;5027593;28;20024;-64
2022/05/02 14:25:52;;;;;;;1.52;1.00;;;24.90;44.10;;;;;;5029270;28;20385;-65
2022/05/02 14:28:20;;;;;;;1.00;0.90;;;24.90;44.20;;;;;;5025571;28;20102;-65
2022/05/02 14:31:02;;;;;;;1.73;1.00;;;24.90;44.20;;;;;;5027507;28;24486;-61
2022/05/02 14:33:39;;;;;;;1.85;1.10;;;24.90;44.20;;;;;;5028729;28;20029;-64
2022/05/02 14:36:10;;;;;;;1.95;1.10;;;24.80;44.20;;;;;;5025624;28;20401;-65
2022/05/02 14:38:36;;;;;;;1.27;0.90;;;24.90;44.20;;;;;;5026820;28;20029;-65
2022/05/02 14:41:03;;;;;;;1.95;1.05;;;24.80;44.20;;;;;;5028945;28;20437;-65
2022/05/02 14:43:30;;;;;;;1.52;1.10;;;24.80;44.20;;;;;;5025848;28;20060;-64
2022/05/02 14:45:55;;;;;;;1.23;1.00;;;24.80;44.30;;;;;;5028425;28;20024;-64
2022/05/02 14:48:23;;;;;;;1.95;0.95;;;24.80;44.30;;;;;;5020825;28;20029;-65
2022/05/02 14:50:51;;;;;;;1.25;0.98;;;24.80;44.30;;;;;;5025117;28;20082;-65
2022/05/02 14:53:20;;;;;;;2.08;1.00;;;24.80;44.30;;;;;;5025606;28;20447;-65
2022/05/02 14:55:49;;;;;;;;;;;24.80;44.30;;;;;;5025261;28;20033;-65
2022/05/02 14:58:19;;;;;;;;;;;24.80;44.30;;;;;;5024867;28;19912;-64
2022/05/02 15:00:58;;;;;;;1.58;1.10;;;24.80;44.30;;;;;;5023308;28;20384;-65
2022/05/02 15:03:33;;;;;;;1.85;0.93;;;24.80;44.40;;;;;;5022246;28;20044;-65
2022/05/02 15:06:07;;;;;;;1.95;1.02;;;24.80;44.40;;;;;;5022162;28;20036;-64
2022/05/02 15:08:57;;;;;;;1.83;1.10;;;24.80;44.50;;;;;;5024537;28;20026;-64
2022/05/02 15:11:38;;;;;;;1.52;0.90;;;24.70;44.40;;;;;;5026787;28;20097;-63
2022/05/02 15:14:35;;;;;;;2.40;1.17;;;24.70;44.50;;;;;;5029005;28;20182;-63
2022/05/02 15:17:20;;;;;;;1.70;1.00;;;24.70;44.50;;;;;;5028468;28;20033;-65
2022/05/02 15:19:57;;;;;;;1.75;1.00;;;24.70;44.50;;;;;;5025938;28;20048;-65
2022/05/02 15:22:31;;;;;;;1.75;1.00;;;24.70;44.50;;;;;;5026794;28;20021;-65
2022/05/02 15:25:09;;;;;;;1.77;0.98;;;24.70;44.50;;;;;;5028346;28;20025;-64
2022/05/02 15:36:39;;;;;;;2.53;0.98;;;24.70;44.80;;;;;;5026390;28;20236;-64
2022/05/02 15:39:26;;;;;;;2.05;0.85;;;24.60;44.70;;;;;;5026878;28;20065;-63
2022/05/02 15:41:54;;;;;;;2.38;1.05;;;24.60;44.70;;;;;;5028850;28;20040;-62
2022/05/02 15:44:23;;;;;;;1.65;0.95;;;24.60;44.80;;;;;;5024212;28;20041;-65
2022/05/02 15:46:51;;;;;;;4.40;1.17;;;24.60;44.90;;;;;;5027025;28;20135;-65
2022/05/02 15:49:22;;;;;;;1.70;1.00;;;24.60;44.90;;;;;;5026229;28;20025;-64
2022/05/02 15:52:03;;;;;;;1.52;0.90;;;24.60;44.90;;;;;;5027396;28;20029;-65
2022/05/02 15:54:28;;;;;;;1.73;1.10;;;24.60;44.90;;;;;;5026570;28;20529;-63
2022/05/02 15:57:00;;;;;;;1.40;0.90;;;24.60;45.10;;;;;;5017897;28;20033;-61
2022/05/02 15:59:39;;;;;;;2.28;1.00;;;24.60;45.20;;;;;;5024905;28;20043;-65
2022/05/02 16:02:13;;;;;;;3.00;1.10;;;24.60;45.40;;;;;;5024305;28;20033;-64
2022/05/02 16:04:56;;;;;;;2.00;1.00;;;24.50;45.30;;;;;;5022833;28;20059;-64
2022/05/02 16:10:34;;;;;;;1.85;1.20;;;24.50;45.40;;;;;;5028906;28;20091;-65
2022/05/02 16:13:00;;;;;;;2.75;1.00;;;24.60;45.50;;;;;;5030993;28;20098;-64
2022/05/02 16:15:26;;;;;;;2.22;1.10;;;24.60;45.50;;;;;;5032125;28;20041;-65
2022/05/02 16:17:55;;;;;;;2.22;1.10;;;24.50;45.50;;;;;;5030102;28;20037;-61
2022/05/02 16:20:21;;;;;;;2.65;1.10;;;24.50;45.60;;;;;;5030784;28;20029;-65
2022/05/02 16:22:48;;;;;;;2.50;1.10;;;24.60;45.60;;;;;;5032389;28;20832;-63
2022/05/02 16:25:21;;;;;;;2.13;1.13;;;24.50;45.60;;;;;;5032582;28;20082;-62
2022/05/02 16:27:48;;;;;;;2.90;1.20;;;24.50;45.60;;;;;;5032008;28;20036;-65
2022/05/02 16:30:16;;;;;;;2.75;1.20;;;24.50;45.60;;;;;;5030592;28;20783;-66
2022/05/02 16:32:44;;;;;;;2.40;1.00;;;24.50;45.60;;;;;;5030795;28;20049;-65
2022/05/02 16:35:09;;;;;;;2.15;1.10;;;24.50;45.60;;;;;;5027943;28;20036;-64
2022/05/02 16:37:37;;;;;;;1.88;1.02;;;24.50;45.60;;;;;;5019382;28;20024;-65
2022/05/02 16:40:06;;;;;;;2.40;1.00;;;24.50;45.60;;;;;;5027766;28;20053;-64
2022/05/02 16:42:42;;;;;;;1.80;1.10;;;24.50;45.70;;;;;;5031010;28;20162;-64
2022/05/02 16:45:11;;;;;;;2.40;1.02;;;24.50;45.80;;;;;;5028671;28;20158;-64
2022/05/02 16:47:40;;;;;;;2.50;1.05;;;24.50;45.80;;;;;;5029303;28;20032;-65
2022/05/02 16:50:08;;;;;;;2.08;0.90;;;24.50;45.70;;;;;;5013238;28;20060;-62
2022/05/02 16:52:35;;;;;;;1.95;1.13;;;24.50;45.80;;;;;;5029363;28;20037;-64
2022/05/02 16:55:02;;;;;;;1.60;1.00;;;24.50;45.70;;;;;;5031275;28;20447;-65
2022/05/02 16:57:39;;;;;;;2.03;1.20;;;24.50;45.70;;;;;;5033187;28;20553;-64
2022/05/02 17:00:21;;;;;;;2.00;1.10;;;24.40;45.80;;;;;;5024259;28;20355;-63
2022/05/02 17:02:56;;;;;;;2.00;1.15;;;24.40;45.80;;;;;;5024863;28;20642;-63
2022/05/02 17:05:22;;;;;;;2.80;1.20;;;24.50;45.80;;;;;;5026128;28;20029;-62
2022/05/02 17:07:50;;;;;;;3.08;1.30;;;24.40;45.80;;;;;;5031585;28;20486;-60
2022/05/02 17:10:17;;;;;;;3.00;1.40;;;24.40;45.90;;;;;;5029731;28;20017;-65
2022/05/02 17:12:43;;;;;;;4.20;1.48;;;24.40;46.00;;;;;;5028822;28;20115;-64
2022/05/02 17:15:10;;;;;;;3.85;1.75;;;24.40;45.90;;;;;;5026898;28;20025;-65
2022/05/02 17:17:37;;;;;;;5.18;1.75;;;24.40;46.00;;;;;;5026964;28;20052;-63
2022/05/02 17:20:04;;;;;;;6.13;2.25;;;24.40;46.10;;;;;;5028065;28;20098;-64
2022/05/02 17:22:33;;;;;;;6.70;2.67;;;24.40;46.10;;;;;;5028457;28;20064;-64
2022/05/02 17:25:03;;;;;;;7.43;2.85;;;24.40;46.10;;;;;;5027567;28;21158;-65
2022/05/02 17:27:34;;;;;;;8.85;2.92;;;24.40;46.10;;;;;;5023439;28;20025;-61
2022/05/02 17:30:08;;;;;;;7.95;3.17;;;24.40;46.00;;;;;;5026323;28;20025;-64
2022/05/02 17:32:54;;;;;;;10.23;3.60;;;24.40;46.00;;;;;;5027376;28;20140;-61
2022/05/02 17:35:24;;;;;;;10.70;3.97;;;24.40;46.00;;;;;;5022985;28;20025;-64
2022/05/02 17:38:01;;;;;;;12.32;4.53;;;24.50;45.90;;;;;;5029656;28;20025;-64
2022/05/02 17:40:39;;;;;;;13.30;4.95;;;24.50;45.90;;;;;;5026239;28;20135;-64
2022/05/02 17:43:18;;;;;;;12.63;4.55;;;24.50;45.80;;;;;;5030255;28;20060;-63
2022/05/02 17:45:54;;;;;;;10.43;3.97;;;24.50;45.80;;;;;;5017599;28;20939;-63
2022/05/02 17:48:25;;;;;;;13.32;4.85;;;24.50;45.80;;;;;;4998838;28;21560;-65
2022/05/02 17:50:51;;;;;;;10.80;3.97;;;24.50;45.80;;;;;;5021894;28;20025;-64
2022/05/02 17:53:19;;;;;;;13.18;5.07;;;24.50;45.90;;;;;;5023263;28;20087;-65
2022/05/02 17:55:50;;;;;;;12.80;4.72;;;24.60;46.00;;;;;;5024596;28;20041;-65
2022/05/02 17:58:22;;;;;;;10.20;4.38;;;24.60;46.00;;;;;;5024253;28;20028;-65
2022/05/02 18:01:06;;;;;;;12.23;4.38;;;24.60;46.00;;;;;;5022367;28;20736;-62
2022/05/02 18:03:40;;;;;;;14.88;5.00;;;24.60;46.00;;;;;;5021500;28;20068;-68
2022/05/02 18:06:06;;;;;;;14.55;5.13;;;24.60;45.90;;;;;;5019170;28;20376;-67
2022/05/02 18:08:34;;;;;;;14.30;5.22;;;24.70;45.80;;;;;;5019069;28;20029;-62
2022/05/02 18:11:01;;;;;;;11.00;4.25;;;24.70;45.90;;;;;;5021622;28;20036;-66
2022/05/02 18:13:28;;;;;;;13.25;4.57;;;24.70;45.90;;;;;;5022257;28;20028;-65
2022/05/02 18:16:17;;;;;;;11.20;4.72;;;24.80;45.90;;;;;;5024493;28;20036;-65
2022/05/02 18:18:57;;;;;;;13.23;4.38;;;24.80;45.80;;;;;;5004977;28;20033;-63
2022/05/02 18:21:24;;;;;;;11.80;4.80;;;24.80;45.80;;;;;;5007981;28;20048;-65
2022/05/02 18:23:51;;;;;;;14.77;4.88;;;24.80;45.80;;;;;;5020570;28;20021;-64
2022/05/02 18:26:19;;;;;;;15.38;5.30;;;24.80;45.80;;;;;;5020698;28;20048;-64
2022/05/02 18:28:48;;;;;;;12.48;4.47;;;24.90;45.70;;;;;;5022861;28;20036;-66
2022/05/02 18:31:23;;;;;;;;;;;24.90;45.70;;;;;;5020726;28;20039;-63
2022/05/02 18:33:54;;;;;;;15.70;5.55;;;24.90;45.70;;;;;;5021347;28;20023;-69
2022/05/02 18:36:21;;;;;;;16.08;5.55;;;24.90;45.60;;;;;;5021740;28;20053;-65
2022/05/02 18:38:52;;;;;;;13.98;5.53;;;24.90;45.60;;;;;;5021133;28;20028;-64
2022/05/02 18:41:33;;;;;;;14.45;5.05;;;24.90;45.50;;;;;;5021170;28;20021;-63
2022/05/02 18:44:13;;;;;;;13.60;4.60;;;24.90;45.50;;;;;;5018175;28;20033;-65
2022/05/02 18:52:57;;;;;;;12.30;4.85;;;25.00;45.50;;;;;;5020169;28;20028;-66
2022/05/02 18:53:12;;;;;;;12.57;4.88;;;25.00;45.50;;;;;;5020872;28;20038;-66
2022/05/02 18:55:51;;;;;;;14.20;4.78;;;25.00;45.50;;;;;;5022509;28;20637;-65
2022/05/02 18:58:18;;;;;;;11.82;4.82;;;25.10;45.50;;;;;;5020641;28;20031;-63
2022/05/02 19:00:49;;;;;;;11.05;4.72;;;25.10;45.50;;;;;;5021415;28;20053;-62
2022/05/02 19:03:15;;;;;;;11.70;4.43;;;25.10;45.50;;;;;;5018660;28;20036;-64
2022/05/02 19:05:41;;;;;;;9.43;4.00;;;25.10;45.50;;;;;;5021117;28;20025;-66
2022/05/02 19:08:16;;;;;;;10.43;4.05;;;25.10;45.50;;;;;;5021598;28;20487;-65
2022/05/02 19:10:52;;;;;;;11.15;4.28;;;25.10;45.50;;;;;;5022561;28;20535;-64
2022/05/02 19:13:21;;;;;;;11.48;4.10;;;25.10;45.50;;;;;;5017573;28;20503;-65
2022/05/02 19:15:48;;;;;;;8.80;3.72;;;25.20;45.90;;;;;;5020084;28;20041;-66
2022/05/02 19:18:13;;;;;;;11.38;4.70;;;25.20;45.80;;;;;;5021597;28;20120;-64
2022/05/02 19:21:10;;;;;;;11.52;4.35;;;25.20;45.70;;;;;;5021002;28;20037;-63
2022/05/02 19:24:10;;;;;;;11.15;3.92;;;25.20;45.70;;;;;;5020915;28;20041;-65
2022/05/02 19:26:38;;;;;;;13.60;4.00;;;25.20;45.70;;;;;;5019959;28;20690;-64
2022/05/02 19:29:07;;;;;;;9.63;4.20;;;25.30;45.70;;;;;;5024554;28;20025;-64
2022/05/02 19:31:34;;;;;;;11.20;3.95;;;25.20;45.60;;;;;;5020674;28;20898;-65
2022/05/02 19:39:43;;;;;;;10.55;3.80;;;25.30;45.90;;;;;;5018829;28;20083;-65
2022/05/02 19:42:23;;;;;;;11.15;4.00;;;25.30;45.80;;;;;;5026027;28;20051;-65
2022/05/02 19:44:56;;;;;;;7.80;3.50;;;25.30;45.70;;;;;;5024068;28;20170;-65
2022/05/02 19:47:29;;;;;;;10.07;4.03;;;25.30;45.60;;;;;;5020379;28;20032;-65
2022/05/02 19:49:57;;;;;;;8.93;3.33;;;25.30;45.90;;;;;;5024579;28;20211;-63
2022/05/02 19:52:23;;;;;;;8.18;3.88;;;25.40;45.70;;;;;;5027350;28;20086;-64
2022/05/02 19:54:50;;;;;;;8.80;3.60;;;25.40;46.30;;;;;;5022551;28;20503;-65
2022/05/02 19:57:17;;;;;;;9.25;3.85;;;25.40;45.70;;;;;;5022552;28;20114;-65
2022/05/02 19:59:43;;;;;;;9.80;3.78;;;25.40;45.70;;;;;;5023581;28;20037;-65
2022/05/02 20:02:13;;;;;;;8.00;3.42;;;25.40;45.60;;;;;;5023624;28;20045;-65
2022/05/02 20:04:42;;;;;;;9.88;3.90;;;25.40;45.70;;;;;;5018642;28;20037;-64
2022/05/02 20:07:09;;;;;;;10.57;4.03;;;25.40;45.70;;;;;;5024665;28;20029;-61
2022/05/02 20:09:35;;;;;;;8.90;3.65;;;25.40;45.70;;;;;;5026979;28;20447;-61
2022/05/02 20:12:02;;;;;;;10.32;4.05;;;25.40;45.70;;;;;;5025719;28;20071;-65
2022/05/02 20:14:28;;;;;;;10.02;3.85;;;25.40;45.70;;;;;;5025753;28;20063;-64
2022/05/02 20:16:56;;;;;;;9.55;4.07;;;25.40;45.70;;;;;;5025521;28;20456;-61
2022/05/02 20:19:21;;;;;;;10.23;3.40;;;25.40;45.70;;;;;;5023438;28;20032;-65
2022/05/02 20:21:49;;;;;;;9.45;3.88;;;25.40;45.70;;;;;;5023888;28;20033;-65
2022/05/02 20:24:17;;;;;;;7.68;3.42;;;25.40;45.70;;;;;;5024541;28;20156;-64
2022/05/02 20:26:44;;;;;;;9.25;3.63;;;25.40;45.70;;;;;;5023292;28;20037;-62
2022/05/02 20:29:11;;;;;;;9.95;3.60;;;25.40;45.70;;;;;;5024477;28;20063;-64
2022/05/02 20:37:09;;;;;;;8.02;3.50;;;25.40;45.80;;;;;;5023048;28;20052;-64
2022/05/02 20:39:35;;;;;;;8.90;4.00;;;25.30;45.70;;;;;;5023046;28;20034;-64
2022/05/02 20:42:03;;;;;;;7.72;3.50;;;25.30;45.80;;;;;;5024492;28;20041;-65
2022/05/02 20:44:41;;;;;;;8.60;3.35;;;25.30;45.80;;;;;;5021862;28;20436;-65
2022/05/02 20:47:11;;;;;;;8.95;3.60;;;25.30;45.80;;;;;;5023904;28;20064;-65
2022/05/02 20:49:51;;;;;;;7.78;3.25;;;25.30;45.80;;;;;;5020422;28;20715;-65
2022/05/02 20:52:19;;;;;;;7.43;3.25;;;25.30;45.80;;;;;;5023735;28;20025;-65
2022/05/02 20:54:47;;;;;;;6.55;3.05;;;25.30;45.70;;;;;;5024790;28;20025;-65
2022/05/02 20:57:14;;;;;;;7.25;3.40;;;25.30;45.80;;;;;;5021066;28;20048;-63
2022/05/02 20:59:44;;;;;;;6.45;2.88;;;25.30;46.30;;;;;;5022741;28;20130;-64
2022/05/02 21:02:12;;;;;;;5.72;3.10;;;25.30;45.80;;;;;;5021583;28;20231;-64
2022/05/02 21:04:39;;;;;;;6.10;2.90;;;25.30;45.80;;;;;;5019902;28;20952;-64
2022/05/02 21:07:05;;;;;;;7.47;3.13;;;25.30;45.80;;;;;;5023554;28;20033;-65
2022/05/02 21:09:30;;;;;;;7.15;2.97;;;25.30;45.70;;;;;;5022161;28;20533;-64
2022/05/02 21:12:38;;;;;;;7.28;3.17;;;25.30;45.80;;;;;;5024024;28;20079;-65
2022/05/02 21:15:41;;;;;;;6.32;2.78;;;25.30;45.80;;;;;;5014664;28;20042;-65
2022/05/02 21:18:25;;;;;;;7.35;3.08;;;25.30;46.00;;;;;;5018535;28;20025;-65
2022/05/02 21:21:28;;;;;;;6.18;3.13;;;25.30;45.80;;;;;;5024668;28;20382;-65
2022/05/02 21:24:07;;;;;;;6.80;2.72;;;25.40;45.90;;;;;;5020349;28;20099;-64
2022/05/02 21:26:53;;;;;;;6.93;2.85;;;25.30;45.80;;;;;;5021033;28;20029;-65
2022/05/02 21:29:29;;;;;;;5.90;2.83;;;25.30;45.70;;;;;;5026914;28;20036;-64
2022/05/02 21:32:37;;;;;;;6.60;2.92;;;25.30;45.70;;;;;;5018881;28;20037;-62
2022/05/02 21:35:07;;;;;;;6.35;2.92;;;25.40;45.80;;;;;;5016014;28;20591;-65
2022/05/02 21:37:37;;;;;;;7.30;2.75;;;25.40;45.70;;;;;;5021770;28;20120;-63
2022/05/02 21:40:04;;;;;;;8.13;3.13;;;25.40;45.70;;;;;;5019950;28;20037;-65
2022/05/02 21:42:37;;;;;;;6.90;2.75;;;25.40;45.70;;;;;;5018781;28;20037;-65
2022/05/02 21:45:04;;;;;;;5.47;2.72;;;25.40;45.70;;;;;;5018509;28;20066;-64
2022/05/02 21:47:30;;;;;;;6.10;2.67;;;25.40;45.60;;;;;;5001905;28;20037;-63
2022/05/02 21:49:56;;;;;;;5.55;2.60;;;25.40;45.60;;;;;;5021557;28;20027;-65
2022/05/02 21:52:22;;;;;;;7.88;2.80;;;25.40;45.60;;;;;;5025937;28;20112;-62
2022/05/02 21:54:47;;;;;;;7.25;3.10;;;25.40;45.60;;;;;;5025717;28;20062;-64
2022/05/02 21:57:13;;;;;;;5.25;2.40;;;25.40;45.50;;;;;;5022337;28;20279;-63
2022/05/02 21:59:39;;;;;;;6.05;2.60;;;25.40;45.70;;;;;;5021103;28;20052;-65
2022/05/02 22:02:04;;;;;;;5.80;2.60;;;25.40;45.60;;;;;;5022315;28;20059;-65
2022/05/02 22:04:30;;;;;;;5.10;2.58;;;25.40;45.50;;;;;;5017176;28;21085;-63
2022/05/02 22:06:56;;;;;;;5.60;2.60;;;25.40;45.50;;;;;;5023574;28;20349;-63
2022/05/02 22:09:21;;;;;;;4.32;2.38;;;25.40;45.50;;;;;;5021388;28;20017;-64
2022/05/02 22:11:47;;;;;;;5.57;2.47;;;25.40;45.50;;;;;;5022643;28;20488;-65
2022/05/02 22:14:12;;;;;;;6.82;2.50;;;25.40;45.40;;;;;;5016738;28;20040;-65
2022/05/02 22:16:38;;;;;;;5.07;2.50;;;25.40;45.30;;;;;;5026003;28;20040;-65
2022/05/02 22:19:04;;;;;;;5.53;2.50;;;25.40;45.30;;;;;;5020643;28;20028;-65
2022/05/02 22:21:30;;;;;;;4.80;2.20;;;25.40;45.30;;;;;;5018719;28;20095;-62
2022/05/02 22:23:55;;;;;;;6.20;2.63;;;25.40;45.30;;;;;;5025709;28;20086;-65
2022/05/02 22:26:21;;;;;;;5.70;2.50;;;25.40;45.30;;;;;;5023786;28;20029;-64
2022/05/02 22:28:46;;;;;;;4.72;2.30;;;25.40;45.30;;;;;;5025720;28;20619;-64
2022/05/02 22:31:12;;;;;;;4.78;2.50;;;25.40;45.30;;;;;;5023990;28;20044;-63
2022/05/02 22:33:38;;;;;;;5.68;2.47;;;25.40;45.30;;;;;;5022237;28;20025;-65
2022/05/02 22:36:03;;;;;;;5.22;2.28;;;25.30;45.20;;;;;;5024486;28;20037;-64
2022/05/02 22:38:29;;;;;;;4.82;2.53;;;25.30;45.20;;;;;;5023221;28;20891;-64
2022/05/02 22:40:55;;;;;;;4.70;2.40;;;25.30;45.20;;;;;;5028515;28;20112;-65
2022/05/02 22:43:20;;;;;;;4.97;2.53;;;25.30;45.20;;;;;;5029838;28;20044;-64
2022/05/02 22:45:46;;;;;;;5.10;2.58;;;25.30;45.20;;;;;;5032319;28;20087;-64
2022/05/02 22:48:11;;;;;;;5.47;2.40;;;25.30;45.20;;;;;;5030884;28;20082;-64
2022/05/02 22:50:37;;;;;;;4.28;2.40;;;25.30;45.20;;;;;;5030310;28;20021;-65
2022/05/02 22:53:03;;;;;;;5.35;2.38;;;25.20;45.10;;;;;;5033241;28;20039;-65
2022/05/02 22:55:29;;;;;;;5.35;2.33;;;25.20;45.10;;;;;;5030134;28;20021;-63
2022/05/02 22:57:56;;;;;;;4.32;2.38;;;25.20;45.10;;;;;;5033378;28;20725;-63
2022/05/02 23:00:22;;;;;;;4.40;2.10;;;25.20;45.60;;;;;;5031874;28;20096;-61
2022/05/02 23:03:14;;;;;;;5.20;2.28;;;25.10;45.10;;;;;;5030861;28;20105;-64
2022/05/02 23:05:44;;;;;;;3.90;2.10;;;25.20;45.10;;;;;;5019448;28;20048;-61
2022/05/02 23:08:37;;;;;;;4.30;1.98;;;25.10;45.10;;;;;;5030425;28;20033;-64
2022/05/02 23:11:06;;;;;;;4.40;2.35;;;25.10;45.10;;;;;;5033626;28;20028;-65
2022/05/02 23:13:35;;;;;;;4.07;2.20;;;25.10;45.10;;;;;;5031922;28;20033;-64
2022/05/02 23:16:09;;;;;;;4.72;2.30;;;25.10;45.10;;;;;;5031231;28;20040;-65
2022/05/02 23:18:37;;;;;;;3.95;2.10;;;25.10;45.10;;;;;;5030845;28;20442;-64
2022/05/02 23:21:03;;;;;;;5.65;2.40;;;25.00;45.00;;;;;;5032167;28;20029;-64
2022/05/02 23:23:29;;;;;;;4.35;2.30;;;25.00;45.10;;;;;;5032350;28;20132;-64
2022/05/02 23:25:56;;;;;;;4.05;2.38;;;25.00;45.10;;;;;;5030626;28;20112;-64
2022/05/02 23:28:23;;;;;;;4.63;2.40;;;25.00;45.10;;;;;;5032724;28;20033;-65
2022/05/02 23:31:11;;;;;;;4.18;2.30;;;25.00;45.10;;;;;;5032012;28;20045;-63
2022/05/02 23:34:10;;;;;;;4.22;2.10;;;25.00;45.10;;;;;;5021029;28;20048;-61
2022/05/02 23:36:40;;;;;;;3.83;2.13;;;25.00;45.20;;;;;;5015324;28;20033;-65
2022/05/02 23:39:07;;;;;;;4.45;2.17;;;24.90;45.10;;;;;;5026005;28;20087;-64
2022/05/02 23:41:37;;;;;;;4.63;2.25;;;24.90;45.10;;;;;;5023591;28;20730;-65
2022/05/02 23:44:02;;;;;;;3.53;2.00;;;24.90;45.10;;;;;;5031703;28;20025;-64
2022/05/02 23:46:32;;;;;;;3.90;1.88;;;24.90;45.10;;;;;;5033077;28;20108;-64
2022/05/02 23:49:19;;;;;;;4.45;2.17;;;24.80;45.00;;;;;;5011846;28;20036;-64
2022/05/02 23:51:53;;;;;;;4.00;2.10;;;24.80;45.10;;;;;;5031301;28;20035;-64
2022/05/02 23:54:31;;;;;;;3.53;2.00;;;24.80;45.10;;;;;;5032350;28;20033;-64
2022/05/02 23:57:12;;;;;;;4.00;2.10;;;24.80;45.10;;;;;;5030742;28;20034;-65
